sensor_id;sensor_type;location;lat;lon;timestamp;P1;durP1;ratioP1;P2;durP2;ratioP2
52104;SDS011;38103;42.776;23.112;2023-01-24T00:00:36;15.80;;;7.50;;
52104;SDS011;38103;42.776;23.112;2023-01-24T00:03:02;14.25;;;6.78;;
52104;SDS011;38103;42.776;23.112;2023-01-24T00:05:28;16.50;;;7.60;;
52104;SDS011;38103;42.776;23.112;2023-01-24T00:07:53;18.38;;;7.85;;
52104;SDS011;38103;42.776;23.112;2023-01-24T00:10:18;20.25;;;9.05;;
52104;SDS011;38103;42.776;23.112;2023-01-24T00:12:44;19.35;;;9.55;;
52104;SDS011;38103;42.776;23.112;2023-01-24T00:15:09;19.25;;;9.80;;
52104;SDS011;38103;42.776;23.112;2023-01-24T00:17:35;19.55;;;9.50;;
52104;SDS011;38103;42.776;23.112;2023-01-24T00:20:01;17.65;;;8.10;;
52104;SDS011;38103;42.776;23.112;2023-01-24T00:22:26;19.73;;;9.88;;
52104;SDS011;38103;42.776;23.112;2023-01-24T00:24:52;19.10;;;9.10;;
52104;SDS011;38103;42.776;23.112;2023-01-24T00:27:17;22.23;;;10.45;;
52104;SDS011;38103;42.776;23.112;2023-01-24T00:29:43;19.70;;;9.48;;
52104;SDS011;38103;42.776;23.112;2023-01-24T00:32:09;18.38;;;9.65;;
52104;SDS011;38103;42.776;23.112;2023-01-24T00:34:34;18.42;;;10.15;;
52104;SDS011;38103;42.776;23.112;2023-01-24T00:37:00;19.88;;;10.70;;
52104;SDS011;38103;42.776;23.112;2023-01-24T00:39:25;17.85;;;8.93;;
52104;SDS011;38103;42.776;23.112;2023-01-24T00:41:51;22.00;;;11.73;;
52104;SDS011;38103;42.776;23.112;2023-01-24T00:44:16;19.65;;;9.48;;
52104;SDS011;38103;42.776;23.112;2023-01-24T00:46:41;19.08;;;9.13;;
52104;SDS011;38103;42.776;23.112;2023-01-24T00:49:07;20.52;;;9.35;;
52104;SDS011;38103;42.776;23.112;2023-01-24T00:51:33;19.60;;;10.38;;
52104;SDS011;38103;42.776;23.112;2023-01-24T00:53:58;18.08;;;8.50;;
52104;SDS011;38103;42.776;23.112;2023-01-24T00:56:24;19.95;;;8.80;;
52104;SDS011;38103;42.776;23.112;2023-01-24T00:58:49;21.50;;;10.23;;
52104;SDS011;38103;42.776;23.112;2023-01-24T01:01:14;21.00;;;10.25;;
52104;SDS011;38103;42.776;23.112;2023-01-24T01:03:40;19.90;;;9.32;;
52104;SDS011;38103;42.776;23.112;2023-01-24T01:06:06;17.65;;;8.07;;
52104;SDS011;38103;42.776;23.112;2023-01-24T01:08:35;21.27;;;9.80;;
52104;SDS011;38103;42.776;23.112;2023-01-24T01:11:00;17.90;;;8.68;;
52104;SDS011;38103;42.776;23.112;2023-01-24T01:13:26;19.50;;;9.32;;
52104;SDS011;38103;42.776;23.112;2023-01-24T01:15:59;19.02;;;8.35;;
52104;SDS011;38103;42.776;23.112;2023-01-24T01:18:46;20.55;;;8.88;;
52104;SDS011;38103;42.776;23.112;2023-01-24T01:21:13;18.17;;;8.90;;
52104;SDS011;38103;42.776;23.112;2023-01-24T01:23:44;16.73;;;7.70;;
52104;SDS011;38103;42.776;23.112;2023-01-24T01:26:13;16.17;;;7.35;;
52104;SDS011;38103;42.776;23.112;2023-01-24T01:28:41;19.05;;;7.60;;
52104;SDS011;38103;42.776;23.112;2023-01-24T01:31:06;17.88;;;7.00;;
52104;SDS011;38103;42.776;23.112;2023-01-24T01:33:32;17.73;;;7.57;;
52104;SDS011;38103;42.776;23.112;2023-01-24T01:35:57;17.90;;;6.97;;
52104;SDS011;38103;42.776;23.112;2023-01-24T01:38:23;17.08;;;8.32;;
52104;SDS011;38103;42.776;23.112;2023-01-24T01:40:50;18.17;;;7.15;;
52104;SDS011;38103;42.776;23.112;2023-01-24T01:43:17;19.85;;;8.35;;
52104;SDS011;38103;42.776;23.112;2023-01-24T01:51:34;16.45;;;7.15;;
52104;SDS011;38103;42.776;23.112;2023-01-24T01:54:22;16.05;;;6.93;;
52104;SDS011;38103;42.776;23.112;2023-01-24T01:56:29;19.60;;;7.28;;
52104;SDS011;38103;42.776;23.112;2023-01-24T01:59:30;16.55;;;7.57;;
52104;SDS011;38103;42.776;23.112;2023-01-24T02:02:00;16.02;;;6.70;;
52104;SDS011;38103;42.776;23.112;2023-01-24T02:04:32;18.30;;;6.85;;
52104;SDS011;38103;42.776;23.112;2023-01-24T02:09:36;16.83;;;8.05;;
52104;SDS011;38103;42.776;23.112;2023-01-24T02:12:05;17.98;;;6.93;;
52104;SDS011;38103;42.776;23.112;2023-01-24T02:14:36;13.32;;;5.88;;
52104;SDS011;38103;42.776;23.112;2023-01-24T02:17:21;15.30;;;6.25;;
52104;SDS011;38103;42.776;23.112;2023-01-24T02:25:39;13.75;;;6.78;;
52104;SDS011;38103;42.776;23.112;2023-01-24T02:28:09;16.08;;;7.13;;
52104;SDS011;38103;42.776;23.112;2023-01-24T02:30:35;16.30;;;7.43;;
52104;SDS011;38103;42.776;23.112;2023-01-24T02:33:12;14.02;;;6.60;;
52104;SDS011;38103;42.776;23.112;2023-01-24T02:35:40;14.63;;;6.47;;
52104;SDS011;38103;42.776;23.112;2023-01-24T02:38:06;12.35;;;5.63;;
52104;SDS011;38103;42.776;23.112;2023-01-24T02:40:38;16.95;;;6.45;;
52104;SDS011;38103;42.776;23.112;2023-01-24T02:43:04;15.98;;;7.00;;
52104;SDS011;38103;42.776;23.112;2023-01-24T02:45:33;13.60;;;5.97;;
52104;SDS011;38103;42.776;23.112;2023-01-24T02:47:58;17.60;;;6.55;;
52104;SDS011;38103;42.776;23.112;2023-01-24T02:50:25;13.57;;;6.25;;
52104;SDS011;38103;42.776;23.112;2023-01-24T02:53:14;15.65;;;7.07;;
52104;SDS011;38103;42.776;23.112;2023-01-24T02:55:55;16.75;;;5.70;;
52104;SDS011;38103;42.776;23.112;2023-01-24T02:58:43;16.88;;;7.25;;
52104;SDS011;38103;42.776;23.112;2023-01-24T03:01:09;17.42;;;5.97;;
52104;SDS011;38103;42.776;23.112;2023-01-24T03:03:35;15.75;;;6.90;;
52104;SDS011;38103;42.776;23.112;2023-01-24T03:06:01;15.27;;;7.10;;
52104;SDS011;38103;42.776;23.112;2023-01-24T03:08:29;13.70;;;5.90;;
52104;SDS011;38103;42.776;23.112;2023-01-24T03:10:57;14.07;;;5.35;;
52104;SDS011;38103;42.776;23.112;2023-01-24T03:13:23;16.77;;;5.50;;
52104;SDS011;38103;42.776;23.112;2023-01-24T03:16:07;18.83;;;6.05;;
52104;SDS011;38103;42.776;23.112;2023-01-24T03:18:52;15.18;;;5.15;;
52104;SDS011;38103;42.776;23.112;2023-01-24T03:21:36;14.73;;;5.35;;
52104;SDS011;38103;42.776;23.112;2023-01-24T03:24:20;19.85;;;5.15;;
52104;SDS011;38103;42.776;23.112;2023-01-24T03:27:04;37.33;;;7.15;;
52104;SDS011;38103;42.776;23.112;2023-01-24T03:29:49;35.13;;;16.83;;
52104;SDS011;38103;42.776;23.112;2023-01-24T03:32:32;19.33;;;8.98;;
52104;SDS011;38103;42.776;23.112;2023-01-24T03:35:16;21.80;;;8.98;;
52104;SDS011;38103;42.776;23.112;2023-01-24T03:37:42;16.98;;;6.90;;
52104;SDS011;38103;42.776;23.112;2023-01-24T03:42:51;13.55;;;5.78;;
52104;SDS011;38103;42.776;23.112;2023-01-24T03:45:19;14.23;;;6.43;;
52104;SDS011;38103;42.776;23.112;2023-01-24T03:47:47;16.52;;;6.55;;
52104;SDS011;38103;42.776;23.112;2023-01-24T03:50:33;15.65;;;6.00;;
52104;SDS011;38103;42.776;23.112;2023-01-24T03:53:19;14.05;;;5.80;;
52104;SDS011;38103;42.776;23.112;2023-01-24T03:55:50;14.25;;;5.80;;
52104;SDS011;38103;42.776;23.112;2023-01-24T03:58:20;11.85;;;4.75;;
52104;SDS011;38103;42.776;23.112;2023-01-24T04:00:46;12.90;;;4.93;;
52104;SDS011;38103;42.776;23.112;2023-01-24T04:03:11;15.73;;;5.13;;
52104;SDS011;38103;42.776;23.112;2023-01-24T04:05:37;13.60;;;6.75;;
52104;SDS011;38103;42.776;23.112;2023-01-24T04:08:02;13.00;;;4.65;;
52104;SDS011;38103;42.776;23.112;2023-01-24T04:10:28;13.15;;;4.85;;
52104;SDS011;38103;42.776;23.112;2023-01-24T04:12:54;14.13;;;5.85;;
52104;SDS011;38103;42.776;23.112;2023-01-24T04:15:22;14.18;;;5.63;;
52104;SDS011;38103;42.776;23.112;2023-01-24T04:17:55;16.10;;;6.43;;
52104;SDS011;38103;42.776;23.112;2023-01-24T04:20:22;12.13;;;4.55;;
52104;SDS011;38103;42.776;23.112;2023-01-24T04:22:48;11.25;;;4.50;;
52104;SDS011;38103;42.776;23.112;2023-01-24T04:25:13;13.00;;;5.07;;
52104;SDS011;38103;42.776;23.112;2023-01-24T04:27:39;13.05;;;5.32;;
52104;SDS011;38103;42.776;23.112;2023-01-24T04:30:05;13.98;;;5.40;;
52104;SDS011;38103;42.776;23.112;2023-01-24T04:32:32;10.52;;;4.03;;
52104;SDS011;38103;42.776;23.112;2023-01-24T04:34:58;12.60;;;4.85;;
52104;SDS011;38103;42.776;23.112;2023-01-24T04:37:24;11.75;;;4.28;;
52104;SDS011;38103;42.776;23.112;2023-01-24T04:39:50;10.82;;;4.22;;
52104;SDS011;38103;42.776;23.112;2023-01-24T04:42:15;12.65;;;4.65;;
52104;SDS011;38103;42.776;23.112;2023-01-24T04:44:41;10.70;;;4.25;;
52104;SDS011;38103;42.776;23.112;2023-01-24T04:47:06;12.93;;;4.45;;
52104;SDS011;38103;42.776;23.112;2023-01-24T04:49:32;11.07;;;4.30;;
52104;SDS011;38103;42.776;23.112;2023-01-24T04:51:57;11.02;;;4.40;;
52104;SDS011;38103;42.776;23.112;2023-01-24T04:54:22;10.77;;;4.20;;
52104;SDS011;38103;42.776;23.112;2023-01-24T04:56:48;13.02;;;4.68;;
52104;SDS011;38103;42.776;23.112;2023-01-24T04:59:13;11.85;;;4.93;;
52104;SDS011;38103;42.776;23.112;2023-01-24T05:01:39;10.50;;;3.80;;
52104;SDS011;38103;42.776;23.112;2023-01-24T05:04:04;10.80;;;4.40;;
52104;SDS011;38103;42.776;23.112;2023-01-24T05:06:31;10.55;;;4.07;;
52104;SDS011;38103;42.776;23.112;2023-01-24T05:08:58;10.55;;;4.13;;
52104;SDS011;38103;42.776;23.112;2023-01-24T05:11:23;15.48;;;6.15;;
52104;SDS011;38103;42.776;23.112;2023-01-24T05:13:49;14.15;;;4.82;;
52104;SDS011;38103;42.776;23.112;2023-01-24T05:16:15;15.13;;;6.43;;
52104;SDS011;38103;42.776;23.112;2023-01-24T05:18:41;12.35;;;4.97;;
52104;SDS011;38103;42.776;23.112;2023-01-24T05:21:12;13.30;;;5.57;;
52104;SDS011;38103;42.776;23.112;2023-01-24T05:23:39;11.50;;;4.57;;
52104;SDS011;38103;42.776;23.112;2023-01-24T05:26:05;11.05;;;4.55;;
52104;SDS011;38103;42.776;23.112;2023-01-24T05:28:31;13.82;;;4.30;;
52104;SDS011;38103;42.776;23.112;2023-01-24T05:31:00;9.15;;;3.50;;
52104;SDS011;38103;42.776;23.112;2023-01-24T05:33:26;10.38;;;3.50;;
52104;SDS011;38103;42.776;23.112;2023-01-24T05:35:58;11.45;;;3.78;;
52104;SDS011;38103;42.776;23.112;2023-01-24T05:38:29;10.57;;;3.85;;
52104;SDS011;38103;42.776;23.112;2023-01-24T05:41:02;9.45;;;3.13;;
52104;SDS011;38103;42.776;23.112;2023-01-24T05:43:30;10.60;;;3.30;;
52104;SDS011;38103;42.776;23.112;2023-01-24T05:46:15;11.25;;;3.78;;
52104;SDS011;38103;42.776;23.112;2023-01-24T05:48:42;10.70;;;3.70;;
52104;SDS011;38103;42.776;23.112;2023-01-24T05:51:09;9.40;;;3.22;;
52104;SDS011;38103;42.776;23.112;2023-01-24T05:53:37;13.85;;;4.38;;
52104;SDS011;38103;42.776;23.112;2023-01-24T05:56:04;11.65;;;3.83;;
52104;SDS011;38103;42.776;23.112;2023-01-24T05:58:33;10.60;;;3.70;;
52104;SDS011;38103;42.776;23.112;2023-01-24T06:01:00;10.27;;;3.80;;
52104;SDS011;38103;42.776;23.112;2023-01-24T06:03:26;9.50;;;3.50;;
52104;SDS011;38103;42.776;23.112;2023-01-24T06:05:52;10.02;;;3.60;;
52104;SDS011;38103;42.776;23.112;2023-01-24T06:08:19;9.70;;;3.50;;
52104;SDS011;38103;42.776;23.112;2023-01-24T06:10:46;10.32;;;3.78;;
52104;SDS011;38103;42.776;23.112;2023-01-24T06:13:12;10.05;;;3.72;;
52104;SDS011;38103;42.776;23.112;2023-01-24T06:15:38;9.68;;;3.83;;
52104;SDS011;38103;42.776;23.112;2023-01-24T06:18:04;10.65;;;3.90;;
52104;SDS011;38103;42.776;23.112;2023-01-24T06:20:30;12.82;;;4.13;;
52104;SDS011;38103;42.776;23.112;2023-01-24T06:22:59;11.50;;;4.22;;
52104;SDS011;38103;42.776;23.112;2023-01-24T06:25:26;9.52;;;3.70;;
52104;SDS011;38103;42.776;23.112;2023-01-24T06:27:51;12.55;;;4.57;;
52104;SDS011;38103;42.776;23.112;2023-01-24T06:30:18;11.52;;;4.47;;
52104;SDS011;38103;42.776;23.112;2023-01-24T06:38:20;12.48;;;4.90;;
52104;SDS011;38103;42.776;23.112;2023-01-24T06:40:49;22.00;;;9.77;;
52104;SDS011;38103;42.776;23.112;2023-01-24T06:43:18;18.58;;;7.85;;
52104;SDS011;38103;42.776;23.112;2023-01-24T06:45:44;17.77;;;7.78;;
52104;SDS011;38103;42.776;23.112;2023-01-24T06:48:09;19.98;;;9.07;;
52104;SDS011;38103;42.776;23.112;2023-01-24T06:50:35;19.73;;;9.20;;
52104;SDS011;38103;42.776;23.112;2023-01-24T06:53:00;11.60;;;5.50;;
52104;SDS011;38103;42.776;23.112;2023-01-24T06:55:26;13.88;;;6.20;;
52104;SDS011;38103;42.776;23.112;2023-01-24T06:57:58;13.55;;;5.43;;
52104;SDS011;38103;42.776;23.112;2023-01-24T07:00:24;13.80;;;4.93;;
52104;SDS011;38103;42.776;23.112;2023-01-24T07:02:59;11.15;;;4.82;;
52104;SDS011;38103;42.776;23.112;2023-01-24T07:05:27;13.15;;;5.13;;
52104;SDS011;38103;42.776;23.112;2023-01-24T07:07:53;13.57;;;5.75;;
52104;SDS011;38103;42.776;23.112;2023-01-24T07:10:18;12.82;;;5.53;;
52104;SDS011;38103;42.776;23.112;2023-01-24T07:12:44;13.55;;;5.47;;
52104;SDS011;38103;42.776;23.112;2023-01-24T07:15:09;13.30;;;5.40;;
52104;SDS011;38103;42.776;23.112;2023-01-24T07:17:35;16.05;;;6.30;;
52104;SDS011;38103;42.776;23.112;2023-01-24T07:20:01;17.27;;;6.95;;
52104;SDS011;38103;42.776;23.112;2023-01-24T07:22:27;16.38;;;8.10;;
52104;SDS011;38103;42.776;23.112;2023-01-24T07:24:52;15.02;;;6.80;;
52104;SDS011;38103;42.776;23.112;2023-01-24T07:27:18;15.52;;;5.55;;
52104;SDS011;38103;42.776;23.112;2023-01-24T07:29:44;14.27;;;5.47;;
52104;SDS011;38103;42.776;23.112;2023-01-24T07:32:10;14.45;;;5.72;;
52104;SDS011;38103;42.776;23.112;2023-01-24T07:34:35;15.35;;;6.30;;
52104;SDS011;38103;42.776;23.112;2023-01-24T07:37:01;12.40;;;4.85;;
52104;SDS011;38103;42.776;23.112;2023-01-24T07:39:29;14.05;;;4.40;;
52104;SDS011;38103;42.776;23.112;2023-01-24T07:41:54;14.32;;;5.15;;
52104;SDS011;38103;42.776;23.112;2023-01-24T07:44:20;14.82;;;6.40;;
52104;SDS011;38103;42.776;23.112;2023-01-24T07:46:45;19.33;;;6.50;;
52104;SDS011;38103;42.776;23.112;2023-01-24T07:49:11;17.75;;;6.53;;
52104;SDS011;38103;42.776;23.112;2023-01-24T07:51:36;19.40;;;6.57;;
52104;SDS011;38103;42.776;23.112;2023-01-24T07:54:02;14.88;;;6.22;;
52104;SDS011;38103;42.776;23.112;2023-01-24T07:56:27;14.88;;;6.15;;
52104;SDS011;38103;42.776;23.112;2023-01-24T07:58:53;18.63;;;7.97;;
52104;SDS011;38103;42.776;23.112;2023-01-24T08:01:22;21.02;;;9.95;;
52104;SDS011;38103;42.776;23.112;2023-01-24T08:03:48;25.00;;;11.30;;
52104;SDS011;38103;42.776;23.112;2023-01-24T08:06:14;24.30;;;11.77;;
52104;SDS011;38103;42.776;23.112;2023-01-24T08:08:40;21.05;;;9.65;;
52104;SDS011;38103;42.776;23.112;2023-01-24T08:11:05;18.52;;;8.30;;
52104;SDS011;38103;42.776;23.112;2023-01-24T08:13:31;15.13;;;6.93;;
52104;SDS011;38103;42.776;23.112;2023-01-24T08:15:58;15.70;;;7.00;;
52104;SDS011;38103;42.776;23.112;2023-01-24T08:18:24;13.25;;;5.68;;
52104;SDS011;38103;42.776;23.112;2023-01-24T08:20:53;13.20;;;5.30;;
52104;SDS011;38103;42.776;23.112;2023-01-24T08:23:19;12.90;;;5.05;;
52104;SDS011;38103;42.776;23.112;2023-01-24T08:25:45;12.63;;;5.20;;
52104;SDS011;38103;42.776;23.112;2023-01-24T08:28:10;19.05;;;9.02;;
52104;SDS011;38103;42.776;23.112;2023-01-24T08:30:35;21.48;;;9.45;;
52104;SDS011;38103;42.776;23.112;2023-01-24T08:33:01;20.27;;;9.63;;
52104;SDS011;38103;42.776;23.112;2023-01-24T08:35:29;20.20;;;8.18;;
52104;SDS011;38103;42.776;23.112;2023-01-24T08:37:55;14.38;;;6.15;;
52104;SDS011;38103;42.776;23.112;2023-01-24T08:40:21;16.33;;;5.45;;
52104;SDS011;38103;42.776;23.112;2023-01-24T08:42:47;12.43;;;4.80;;
52104;SDS011;38103;42.776;23.112;2023-01-24T08:45:12;14.43;;;5.32;;
52104;SDS011;38103;42.776;23.112;2023-01-24T08:47:37;12.65;;;4.60;;
52104;SDS011;38103;42.776;23.112;2023-01-24T08:50:03;12.75;;;4.55;;
52104;SDS011;38103;42.776;23.112;2023-01-24T08:52:28;15.10;;;5.78;;
52104;SDS011;38103;42.776;23.112;2023-01-24T08:54:54;14.82;;;5.55;;
52104;SDS011;38103;42.776;23.112;2023-01-24T08:57:19;14.15;;;5.88;;
52104;SDS011;38103;42.776;23.112;2023-01-24T08:59:44;15.07;;;6.13;;
52104;SDS011;38103;42.776;23.112;2023-01-24T09:02:13;16.35;;;5.90;;
52104;SDS011;38103;42.776;23.112;2023-01-24T09:04:40;12.60;;;5.22;;
52104;SDS011;38103;42.776;23.112;2023-01-24T09:07:07;12.27;;;5.18;;
52104;SDS011;38103;42.776;23.112;2023-01-24T09:09:32;13.40;;;5.32;;
52104;SDS011;38103;42.776;23.112;2023-01-24T09:11:58;14.02;;;5.40;;
52104;SDS011;38103;42.776;23.112;2023-01-24T09:14:23;12.25;;;5.00;;
52104;SDS011;38103;42.776;23.112;2023-01-24T09:16:48;12.60;;;4.53;;
52104;SDS011;38103;42.776;23.112;2023-01-24T09:19:14;11.63;;;4.22;;
52104;SDS011;38103;42.776;23.112;2023-01-24T09:21:39;10.68;;;3.85;;
52104;SDS011;38103;42.776;23.112;2023-01-24T09:24:05;11.82;;;4.47;;
52104;SDS011;38103;42.776;23.112;2023-01-24T09:26:30;11.32;;;4.15;;
52104;SDS011;38103;42.776;23.112;2023-01-24T09:28:56;12.05;;;4.57;;
52104;SDS011;38103;42.776;23.112;2023-01-24T09:31:21;12.40;;;4.43;;
52104;SDS011;38103;42.776;23.112;2023-01-24T09:33:47;15.52;;;4.95;;
52104;SDS011;38103;42.776;23.112;2023-01-24T09:36:12;13.77;;;5.35;;
52104;SDS011;38103;42.776;23.112;2023-01-24T09:38:37;11.88;;;4.22;;
52104;SDS011;38103;42.776;23.112;2023-01-24T09:41:06;12.38;;;4.30;;
52104;SDS011;38103;42.776;23.112;2023-01-24T09:44:02;11.65;;;4.82;;
52104;SDS011;38103;42.776;23.112;2023-01-24T09:51:48;16.85;;;6.50;;
52104;SDS011;38103;42.776;23.112;2023-01-24T09:54:38;15.93;;;6.15;;
52104;SDS011;38103;42.776;23.112;2023-01-24T09:57:28;20.10;;;8.20;;
52104;SDS011;38103;42.776;23.112;2023-01-24T10:00:04;11.60;;;4.78;;
52104;SDS011;38103;42.776;23.112;2023-01-24T10:02:42;12.23;;;5.35;;
52104;SDS011;38103;42.776;23.112;2023-01-24T10:05:11;15.25;;;6.03;;
52104;SDS011;38103;42.776;23.112;2023-01-24T10:13:00;12.02;;;5.57;;
52104;SDS011;38103;42.776;23.112;2023-01-24T10:21:02;10.32;;;3.85;;
52104;SDS011;38103;42.776;23.112;2023-01-24T10:23:42;12.95;;;5.30;;
52104;SDS011;38103;42.776;23.112;2023-01-24T10:26:17;13.88;;;6.28;;
52104;SDS011;38103;42.776;23.112;2023-01-24T10:28:54;9.93;;;3.80;;
52104;SDS011;38103;42.776;23.112;2023-01-24T10:31:27;11.77;;;5.00;;
52104;SDS011;38103;42.776;23.112;2023-01-24T10:33:57;10.57;;;4.25;;
52104;SDS011;38103;42.776;23.112;2023-01-24T10:39:10;9.75;;;4.20;;
52104;SDS011;38103;42.776;23.112;2023-01-24T10:41:35;10.15;;;4.22;;
52104;SDS011;38103;42.776;23.112;2023-01-24T10:49:51;10.25;;;3.97;;
52104;SDS011;38103;42.776;23.112;2023-01-24T10:52:21;10.27;;;3.88;;
52104;SDS011;38103;42.776;23.112;2023-01-24T11:00:06;10.35;;;4.10;;
52104;SDS011;38103;42.776;23.112;2023-01-24T11:02:52;12.70;;;4.97;;
52104;SDS011;38103;42.776;23.112;2023-01-24T11:05:22;15.32;;;5.75;;
52104;SDS011;38103;42.776;23.112;2023-01-24T11:08:10;11.02;;;3.78;;
52104;SDS011;38103;42.776;23.112;2023-01-24T11:10:44;9.75;;;4.03;;
52104;SDS011;38103;42.776;23.112;2023-01-24T11:13:24;12.45;;;4.50;;
52104;SDS011;38103;42.776;23.112;2023-01-24T11:15:53;11.38;;;4.47;;
52104;SDS011;38103;42.776;23.112;2023-01-24T11:18:26;11.65;;;4.13;;
52104;SDS011;38103;42.776;23.112;2023-01-24T11:23:33;12.75;;;4.57;;
52104;SDS011;38103;42.776;23.112;2023-01-24T11:25:59;10.95;;;4.95;;
52104;SDS011;38103;42.776;23.112;2023-01-24T11:28:36;10.20;;;4.18;;
52104;SDS011;38103;42.776;23.112;2023-01-24T11:35:56;10.00;;;3.60;;
52104;SDS011;38103;42.776;23.112;2023-01-24T11:46:22;10.90;;;3.67;;
52104;SDS011;38103;42.776;23.112;2023-01-24T11:49:12;9.18;;;3.22;;
52104;SDS011;38103;42.776;23.112;2023-01-24T12:02:23;10.55;;;4.45;;
52104;SDS011;38103;42.776;23.112;2023-01-24T12:05:25;10.88;;;4.65;;
52104;SDS011;38103;42.776;23.112;2023-01-24T12:10:30;9.55;;;3.35;;
52104;SDS011;38103;42.776;23.112;2023-01-24T12:16:25;14.25;;;6.15;;
52104;SDS011;38103;42.776;23.112;2023-01-24T12:21:32;9.75;;;2.92;;
52104;SDS011;38103;42.776;23.112;2023-01-24T12:26:55;9.27;;;3.60;;
52104;SDS011;38103;42.776;23.112;2023-01-24T12:32:42;11.25;;;3.95;;
52104;SDS011;38103;42.776;23.112;2023-01-24T12:46:14;10.50;;;3.25;;
52104;SDS011;38103;42.776;23.112;2023-01-24T12:51:42;12.00;;;3.47;;
52104;SDS011;38103;42.776;23.112;2023-01-24T12:54:14;8.55;;;3.55;;
52104;SDS011;38103;42.776;23.112;2023-01-24T12:59:24;9.73;;;3.80;;
52104;SDS011;38103;42.776;23.112;2023-01-24T13:04:41;9.20;;;3.33;;
52104;SDS011;38103;42.776;23.112;2023-01-24T13:12:37;9.38;;;3.55;;
52104;SDS011;38103;42.776;23.112;2023-01-24T13:15:10;11.60;;;3.60;;
52104;SDS011;38103;42.776;23.112;2023-01-24T13:20:18;9.55;;;3.90;;
52104;SDS011;38103;42.776;23.112;2023-01-24T13:33:49;11.88;;;4.80;;
52104;SDS011;38103;42.776;23.112;2023-01-24T13:36:21;21.98;;;9.43;;
52104;SDS011;38103;42.776;23.112;2023-01-24T13:38:50;11.77;;;4.90;;
52104;SDS011;38103;42.776;23.112;2023-01-24T13:41:38;11.23;;;4.25;;
52104;SDS011;38103;42.776;23.112;2023-01-24T13:56:01;10.73;;;3.95;;
52104;SDS011;38103;42.776;23.112;2023-01-24T13:58:28;9.15;;;3.50;;
52104;SDS011;38103;42.776;23.112;2023-01-24T14:00:56;10.60;;;3.85;;
52104;SDS011;38103;42.776;23.112;2023-01-24T14:18:57;10.43;;;3.53;;
52104;SDS011;38103;42.776;23.112;2023-01-24T14:24:26;10.45;;;3.70;;
52104;SDS011;38103;42.776;23.112;2023-01-24T14:26:58;10.13;;;3.30;;
52104;SDS011;38103;42.776;23.112;2023-01-24T14:29:28;11.68;;;5.03;;
52104;SDS011;38103;42.776;23.112;2023-01-24T14:32:02;9.93;;;4.05;;
52104;SDS011;38103;42.776;23.112;2023-01-24T14:34:35;9.82;;;3.67;;
52104;SDS011;38103;42.776;23.112;2023-01-24T14:37:16;10.65;;;4.20;;
52104;SDS011;38103;42.776;23.112;2023-01-24T14:39:42;10.05;;;3.55;;
52104;SDS011;38103;42.776;23.112;2023-01-24T14:42:11;11.63;;;4.60;;
52104;SDS011;38103;42.776;23.112;2023-01-24T14:44:39;10.13;;;4.30;;
52104;SDS011;38103;42.776;23.112;2023-01-24T14:47:18;10.85;;;4.30;;
52104;SDS011;38103;42.776;23.112;2023-01-24T14:49:47;11.18;;;4.40;;
52104;SDS011;38103;42.776;23.112;2023-01-24T14:52:20;10.98;;;4.57;;
52104;SDS011;38103;42.776;23.112;2023-01-24T14:54:48;10.43;;;4.20;;
52104;SDS011;38103;42.776;23.112;2023-01-24T15:02:59;11.02;;;4.43;;
52104;SDS011;38103;42.776;23.112;2023-01-24T15:07:56;10.10;;;4.03;;
52104;SDS011;38103;42.776;23.112;2023-01-24T15:12:56;10.45;;;3.92;;
52104;SDS011;38103;42.776;23.112;2023-01-24T15:15:23;14.80;;;4.25;;
52104;SDS011;38103;42.776;23.112;2023-01-24T15:17:49;11.70;;;4.75;;
52104;SDS011;38103;42.776;23.112;2023-01-24T15:20:20;14.52;;;5.72;;
52104;SDS011;38103;42.776;23.112;2023-01-24T15:22:51;15.00;;;6.97;;
52104;SDS011;38103;42.776;23.112;2023-01-24T15:25:22;13.27;;;5.13;;
52104;SDS011;38103;42.776;23.112;2023-01-24T15:30:23;11.43;;;4.45;;
52104;SDS011;38103;42.776;23.112;2023-01-24T15:40:34;13.73;;;6.47;;
52104;SDS011;38103;42.776;23.112;2023-01-24T15:43:02;9.75;;;4.00;;
52104;SDS011;38103;42.776;23.112;2023-01-24T15:45:48;11.13;;;3.65;;
52104;SDS011;38103;42.776;23.112;2023-01-24T15:48:36;8.90;;;3.28;;
52104;SDS011;38103;42.776;23.112;2023-01-24T15:51:02;7.45;;;2.83;;
52104;SDS011;38103;42.776;23.112;2023-01-24T15:53:30;9.23;;;3.60;;
52104;SDS011;38103;42.776;23.112;2023-01-24T15:56:00;12.50;;;3.25;;
52104;SDS011;38103;42.776;23.112;2023-01-24T15:58:28;9.15;;;3.53;;
52104;SDS011;38103;42.776;23.112;2023-01-24T16:00:55;7.75;;;3.15;;
52104;SDS011;38103;42.776;23.112;2023-01-24T16:03:23;10.52;;;3.50;;
52104;SDS011;38103;42.776;23.112;2023-01-24T16:05:49;8.88;;;3.20;;
52104;SDS011;38103;42.776;23.112;2023-01-24T16:08:14;8.68;;;3.17;;
52104;SDS011;38103;42.776;23.112;2023-01-24T16:10:40;11.43;;;4.10;;
52104;SDS011;38103;42.776;23.112;2023-01-24T16:13:15;9.60;;;3.78;;
52104;SDS011;38103;42.776;23.112;2023-01-24T16:15:50;11.07;;;3.85;;
52104;SDS011;38103;42.776;23.112;2023-01-24T16:18:15;13.82;;;4.75;;
52104;SDS011;38103;42.776;23.112;2023-01-24T16:20:41;13.18;;;4.22;;
52104;SDS011;38103;42.776;23.112;2023-01-24T16:23:06;14.40;;;4.40;;
52104;SDS011;38103;42.776;23.112;2023-01-24T16:25:35;13.60;;;3.97;;
52104;SDS011;38103;42.776;23.112;2023-01-24T16:28:01;9.82;;;3.40;;
52104;SDS011;38103;42.776;23.112;2023-01-24T16:30:28;10.00;;;3.60;;
52104;SDS011;38103;42.776;23.112;2023-01-24T16:32:54;11.23;;;3.58;;
52104;SDS011;38103;42.776;23.112;2023-01-24T16:35:19;11.77;;;3.88;;
52104;SDS011;38103;42.776;23.112;2023-01-24T16:37:45;10.27;;;3.60;;
52104;SDS011;38103;42.776;23.112;2023-01-24T16:40:11;12.98;;;3.53;;
52104;SDS011;38103;42.776;23.112;2023-01-24T16:42:39;10.02;;;3.17;;
52104;SDS011;38103;42.776;23.112;2023-01-24T16:45:08;10.90;;;3.63;;
52104;SDS011;38103;42.776;23.112;2023-01-24T16:47:41;9.50;;;3.42;;
52104;SDS011;38103;42.776;23.112;2023-01-24T16:50:07;10.07;;;3.53;;
52104;SDS011;38103;42.776;23.112;2023-01-24T16:52:34;8.88;;;3.20;;
52104;SDS011;38103;42.776;23.112;2023-01-24T16:55:00;9.68;;;3.70;;
52104;SDS011;38103;42.776;23.112;2023-01-24T16:57:26;11.75;;;4.07;;
52104;SDS011;38103;42.776;23.112;2023-01-24T16:59:52;9.52;;;3.50;;
52104;SDS011;38103;42.776;23.112;2023-01-24T17:02:17;9.10;;;3.42;;
52104;SDS011;38103;42.776;23.112;2023-01-24T17:04:43;11.48;;;3.22;;
52104;SDS011;38103;42.776;23.112;2023-01-24T17:07:08;9.65;;;3.58;;
52104;SDS011;38103;42.776;23.112;2023-01-24T17:09:33;7.97;;;2.78;;
52104;SDS011;38103;42.776;23.112;2023-01-24T17:12:00;8.52;;;3.03;;
52104;SDS011;38103;42.776;23.112;2023-01-24T17:14:25;7.68;;;2.90;;
52104;SDS011;38103;42.776;23.112;2023-01-24T17:16:51;8.13;;;3.10;;
52104;SDS011;38103;42.776;23.112;2023-01-24T17:19:17;6.80;;;2.60;;
52104;SDS011;38103;42.776;23.112;2023-01-24T17:21:42;9.45;;;3.00;;
52104;SDS011;38103;42.776;23.112;2023-01-24T17:24:08;7.45;;;2.85;;
52104;SDS011;38103;42.776;23.112;2023-01-24T17:26:34;8.02;;;3.05;;
52104;SDS011;38103;42.776;23.112;2023-01-24T17:29:00;8.32;;;2.67;;
52104;SDS011;38103;42.776;23.112;2023-01-24T17:31:26;8.27;;;2.80;;
52104;SDS011;38103;42.776;23.112;2023-01-24T17:33:52;9.38;;;3.60;;
52104;SDS011;38103;42.776;23.112;2023-01-24T17:36:18;8.82;;;3.35;;